Weather observations for the past three days for
Twentynine Palms SELF Airport
Imperial (Metric)
Date Time (pdt) Wind (mph) Vis. (mi.) Weather Sky Cond. Temperature (ºF) Relative Humidity Wind Chill (°F) Heat Index (°F) Pressure Precipitation (in)
Air Dwpt 6 hour altimeter (in) sea level (mb) 1 hr 3 hr 6 hr
Max. Min.
04 15:54 SW 15 10.00 Fair CLR 95 32 11% 90 29.9 1008.6
04 14:54 S 10 10.00 Fair CLR 93.9 32 11% 89 29.91 1009.0
04 13:54 SE 3 10.00 Fair CLR 91 33.1 13% 87 29.92 1009.7
04 12:54 SE 9 G 21 10.00 Fair CLR 89.1 35.1 15% 85 29.95 1010.4
04 11:54 Vrbl 6 10.00 Fair CLR 87.1 37 17% 84 29.97 1011.2
04 09:54 Calm 10.00 Fair CLR 79 39.9 25% 78 29.99 1012.0
04 08:54 N 5 10.00 Fair CLR 75.9 42.1 30% 77 29.97 1011.5
04 07:54 NW 5 10.00 Fair CLR 70 39.9 34% 29.97 1011.6
04 06:54 NW 5 10.00 Fair CLR 64.9 41 42% 29.95 1010.8
04 04:54 N 5 10.00 Fair CLR 66.9 42.1 80.1 66 41% 29.92 1009.8
04 03:54 W 10 10.00 Fair CLR 70 43 38% 29.91 1009.1
04 02:54 NW 5 10.00 Fair CLR 69.1 43 39% 29.91 1009.0
04 01:54 W 9 10.00 Fair CLR 73 43 34% 29.9 1008.9
04 00:54 W 5 10.00 Fair CLR 72 39.9 31% 29.91 1009.0
03 23:54 NW 7 10.00 Fair CLR 75.9 39 26% 77 29.89 1008.6
03 20:54 SW 13 10.00 Fair CLR 82 41 23% 80 29.88 1008.5
03 19:54 SW 15 10.00 Fair CLR 84 39 20% 81 29.86 1007.6
03 18:54 SW 14 10.00 Fair CLR 87.1 37 17% 84 29.86 1007.6
03 17:54 SW 16 10.00 Fair CLR 91 34 13% 87 29.86 1007.5
03 16:54 SW 15 10.00 Fair CLR 93 30 95 82 10% 88 29.86 1007.7
03 14:54 SE 7 10.00 Fair CLR 93 25 8% 88 29.9 1008.9
03 13:54 Vrbl 6 G 18 10.00 Fair CLR 90 24.1 9% 86 29.92 1009.5
03 12:54 Calm 10.00 Fair CLR 89.1 23 9% 85 29.94 1010.1
03 11:54 Vrbl 7 10.00 Fair CLR 86 24.1 10% 83 29.97 1011.3
03 10:54 Vrbl 3 10.00 Fair CLR 82 26.1 82 63 13% 80 29.99 1012.1
03 06:54 Calm 10.00 Fair CLR 64 30 28% 29.99 1012.1
03 05:54 Calm 10.00 Fair CLR 64 30 28% 29.97 1011.5
03 04:54 W 8 10.00 Fair CLR 66 33.1 75.9 66 29% 29.97 1011.4
03 03:54 W 8 10.00 Fair CLR 68 35.1 30% 29.97 1011.3
03 02:54 W 12 10.00 Fair CLR 70 34 27% 29.97 1011.2
03 01:54 W 12 10.00 Fair CLR 72 34 25% 29.98 1011.5
03 00:54 W 12 10.00 Fair CLR 73 36 26% 29.99 1011.8
02 23:54 NW 13 10.00 Fair CLR 75 34 22% 76 29.99 1011.9
02 22:54 W 14 10.00 Fair CLR 75.9 36 93.9 75.9 23% 77 30 1012.1
02 21:54 W 12 10.00 Fair CLR 78.1 30.9 18% 77 29.99 1012.0
02 19:54 W 9 10.00 Fair CLR 84 30 14% 81 29.95 1010.5
02 18:54 SW 18 G 25 10.00 Fair CLR 88 30 12% 84 29.93 1010.2
02 17:54 SW 22 10.00 Fair and Breezy CLR 91 24.1 9% 87 29.93 1009.9
02 16:54 SW 21 G 29 10.00 Fair and Breezy CLR 93.9 18 96.1 84 6% 89 29.93 1010.0
02 15:54 SW 20 G 30 10.00 Fair CLR 95 12.9 5% 90 29.95 1010.5
02 14:54 SE 8 10.00 Fair CLR 95 17.1 6% 90 29.97 1011.2
02 13:54 Calm 10.00 Fair CLR 91.9 18 6% 88 29.99 1011.8
02 12:54 E 5 10.00 Fair CLR 89.1 18 7% 85 30.01 1012.9
02 11:54 Calm 10.00 Fair CLR 86 19.9 9% 83 30.03 1013.6
02 10:54 Calm 10.00 Fair CLR 84.9 21 84.9 62.1 9% 82 30.05 1013.9
02 09:54 Calm 10.00 Fair CLR 81 23 12% 79 30.06 1014.4
02 08:54 NW 8 10.00 Fair CLR 77 21.9 13% 76 30.05 1014.1
02 07:54 NW 10 10.00 Fair CLR 71.1 23 16% 30.05 1014.1
02 04:54 N 6 10.00 Fair CLR 66 28 77 64.9 24% 30.02 1013.1
02 03:54 W 5 10.00 Fair CLR 66.9 28.9 24% 30.01 1012.7
02 02:54 N 7 10.00 Fair CLR 68 30 24% 30.02 1012.8
02 01:54 N 3 10.00 Fair CLR 70 30.9 23% 30.01 1012.6
01 23:54 W 9 10.00 Fair CLR 73.9 35.1 24% 30 1012.1
01 21:54 SW 12 10.00 Fair CLR 79 35.1 20% 78 29.99 1012.0
01 20:54 SW 15 10.00 Fair CLR 82 33.1 17% 80 29.97 1011.2
01 19:54 SW 15 10.00 Fair CLR 84.9 36 17% 82 29.96 1010.9
01 17:54 SW 22 10.00 Fair and Breezy CLR 91 32 12% 87 29.94 1010.4
Date Time (pdt) Wind (mph) Vis. (mi.) Weather Sky Cond. Air Dwpt Max. Min. Relative Humidity Wind Chill (°F) Heat Index (°F) altimeter (in) sea level (mb) 1 hr 3 hr 6 hr
6 hour
Temperature (ºF) Pressure Precipitation (in)